sensor_id;sensor_type;location;lat;lon;timestamp;pressure;altitude;pressure_sealevel;temperature;humidity
64841;BME280;51307;52.162;7.560;2024-03-29T00:02:12;98828.81;;;8.80;60.05
64841;BME280;51307;52.162;7.560;2024-03-29T00:04:37;98831.44;;;8.73;60.02
64841;BME280;51307;52.162;7.560;2024-03-29T00:07:03;98833.53;;;8.78;60.02
64841;BME280;51307;52.162;7.560;2024-03-29T00:09:29;98837.22;;;8.76;60.00
64841;BME280;51307;52.162;7.560;2024-03-29T00:11:54;98836.41;;;8.76;59.98
64841;BME280;51307;52.162;7.560;2024-03-29T00:14:19;98828.06;;;8.86;60.03
64841;BME280;51307;52.162;7.560;2024-03-29T00:16:45;98832.66;;;8.70;59.78
64841;BME280;51307;52.162;7.560;2024-03-29T00:19:10;98820.13;;;8.64;60.55
64841;BME280;51307;52.162;7.560;2024-03-29T00:21:36;98829.66;;;8.80;59.93
64841;BME280;51307;52.162;7.560;2024-03-29T00:24:01;98824.53;;;8.79;59.85
64841;BME280;51307;52.162;7.560;2024-03-29T00:26:27;98823.50;;;8.80;59.82
64841;BME280;51307;52.162;7.560;2024-03-29T00:28:52;98824.13;;;8.82;59.92
64841;BME280;51307;52.162;7.560;2024-03-29T00:31:18;98814.47;;;8.81;59.99
64841;BME280;51307;52.162;7.560;2024-03-29T00:33:43;98819.97;;;8.72;60.18
64841;BME280;51307;52.162;7.560;2024-03-29T00:36:09;98830.25;;;8.75;59.91
64841;BME280;51307;52.162;7.560;2024-03-29T00:38:34;98829.44;;;8.75;60.06
64841;BME280;51307;52.162;7.560;2024-03-29T00:41:00;98828.53;;;8.61;60.19
64841;BME280;51307;52.162;7.560;2024-03-29T00:43:28;98819.44;;;8.55;60.66
64841;BME280;51307;52.162;7.560;2024-03-29T00:45:59;98824.06;;;8.68;60.34
64841;BME280;51307;52.162;7.560;2024-03-29T00:48:24;98821.97;;;8.64;60.41
64841;BME280;51307;52.162;7.560;2024-03-29T00:50:50;98819.34;;;8.70;60.17
64841;BME280;51307;52.162;7.560;2024-03-29T00:53:15;98823.19;;;8.61;60.41
64841;BME280;51307;52.162;7.560;2024-03-29T00:55:41;98809.03;;;8.61;60.46
64841;BME280;51307;52.162;7.560;2024-03-29T00:58:06;98815.75;;;8.50;61.19
64841;BME280;51307;52.162;7.560;2024-03-29T01:00:32;98818.31;;;8.36;61.54
64841;BME280;51307;52.162;7.560;2024-03-29T01:02:58;98820.22;;;8.42;61.28
64841;BME280;51307;52.162;7.560;2024-03-29T01:05:24;98828.81;;;8.45;61.58
64841;BME280;51307;52.162;7.560;2024-03-29T01:07:49;98828.88;;;8.51;61.13
64841;BME280;51307;52.162;7.560;2024-03-29T01:10:15;98829.25;;;8.48;61.38
64841;BME280;51307;52.162;7.560;2024-03-29T01:12:42;98827.16;;;8.37;61.80
64841;BME280;51307;52.162;7.560;2024-03-29T01:15:08;98828.88;;;8.23;62.26
64841;BME280;51307;52.162;7.560;2024-03-29T01:17:34;98831.78;;;8.28;62.12
64841;BME280;51307;52.162;7.560;2024-03-29T01:19:59;98846.31;;;8.25;62.35
64841;BME280;51307;52.162;7.560;2024-03-29T01:22:26;98847.91;;;8.20;62.78
64841;BME280;51307;52.162;7.560;2024-03-29T01:24:51;98846.25;;;8.19;62.70
64841;BME280;51307;52.162;7.560;2024-03-29T01:27:19;98848.72;;;8.20;62.41
64841;BME280;51307;52.162;7.560;2024-03-29T01:29:45;98855.72;;;8.21;62.19
64841;BME280;51307;52.162;7.560;2024-03-29T01:32:10;98860.31;;;8.06;62.79
64841;BME280;51307;52.162;7.560;2024-03-29T01:34:37;98857.06;;;8.11;62.85
64841;BME280;51307;52.162;7.560;2024-03-29T01:37:02;98854.94;;;8.28;62.30
64841;BME280;51307;52.162;7.560;2024-03-29T01:39:27;98851.75;;;8.39;61.78
64841;BME280;51307;52.162;7.560;2024-03-29T01:41:56;98855.91;;;8.20;62.40
64841;BME280;51307;52.162;7.560;2024-03-29T01:44:22;98856.34;;;8.23;62.19
64841;BME280;51307;52.162;7.560;2024-03-29T01:46:47;98857.97;;;8.24;62.37
64841;BME280;51307;52.162;7.560;2024-03-29T01:49:13;98852.72;;;8.09;63.11
64841;BME280;51307;52.162;7.560;2024-03-29T01:51:40;98851.97;;;8.16;62.31
64841;BME280;51307;52.162;7.560;2024-03-29T01:54:08;98849.63;;;8.28;62.22
64841;BME280;51307;52.162;7.560;2024-03-29T01:56:36;98848.81;;;8.05;63.14
64841;BME280;51307;52.162;7.560;2024-03-29T01:59:03;98847.75;;;8.00;63.30
64841;BME280;51307;52.162;7.560;2024-03-29T02:01:33;98843.28;;;8.07;63.13
64841;BME280;51307;52.162;7.560;2024-03-29T02:03:59;98841.38;;;8.22;62.49
64841;BME280;51307;52.162;7.560;2024-03-29T02:06:25;98829.59;;;8.10;62.98
64841;BME280;51307;52.162;7.560;2024-03-29T02:08:52;98823.56;;;8.01;62.82
64841;BME280;51307;52.162;7.560;2024-03-29T02:11:21;98824.84;;;8.05;62.76
64841;BME280;51307;52.162;7.560;2024-03-29T02:13:49;98827.31;;;8.07;62.79
64841;BME280;51307;52.162;7.560;2024-03-29T02:16:15;98828.75;;;8.09;63.14
64841;BME280;51307;52.162;7.560;2024-03-29T02:18:40;98813.13;;;8.00;62.77
64841;BME280;51307;52.162;7.560;2024-03-29T02:21:07;98807.41;;;8.03;63.04
64841;BME280;51307;52.162;7.560;2024-03-29T02:23:37;98790.34;;;7.97;62.93
64841;BME280;51307;52.162;7.560;2024-03-29T02:26:08;98786.25;;;7.95;63.13
64841;BME280;51307;52.162;7.560;2024-03-29T02:28:33;98793.41;;;7.94;62.66
64841;BME280;51307;52.162;7.560;2024-03-29T02:30:59;98784.59;;;7.94;62.93
64841;BME280;51307;52.162;7.560;2024-03-29T02:33:25;98774.19;;;7.99;62.79
64841;BME280;51307;52.162;7.560;2024-03-29T02:35:50;98779.81;;;8.11;62.33
64841;BME280;51307;52.162;7.560;2024-03-29T02:38:16;98773.47;;;8.12;62.33
64841;BME280;51307;52.162;7.560;2024-03-29T02:40:41;98789.00;;;8.08;62.17
64841;BME280;51307;52.162;7.560;2024-03-29T02:43:07;98784.13;;;8.12;62.34
64841;BME280;51307;52.162;7.560;2024-03-29T02:45:32;98776.03;;;7.98;62.90
64841;BME280;51307;52.162;7.560;2024-03-29T02:47:57;98795.25;;;8.22;62.13
64841;BME280;51307;52.162;7.560;2024-03-29T02:50:25;98807.31;;;8.18;62.55
64841;BME280;51307;52.162;7.560;2024-03-29T02:52:51;98802.78;;;8.12;62.30
64841;BME280;51307;52.162;7.560;2024-03-29T02:55:16;98821.31;;;8.27;61.63
64841;BME280;51307;52.162;7.560;2024-03-29T02:57:42;98839.66;;;8.15;62.21
64841;BME280;51307;52.162;7.560;2024-03-29T03:00:08;98823.25;;;8.11;62.60
64841;BME280;51307;52.162;7.560;2024-03-29T03:02:40;98831.22;;;8.11;62.58
64841;BME280;51307;52.162;7.560;2024-03-29T03:05:08;98831.16;;;8.26;62.37
64841;BME280;51307;52.162;7.560;2024-03-29T03:07:34;98821.88;;;8.22;62.52
64841;BME280;51307;52.162;7.560;2024-03-29T03:10:18;98831.81;;;8.06;62.82
64841;BME280;51307;52.162;7.560;2024-03-29T03:13:03;98818.47;;;8.28;62.21
64841;BME280;51307;52.162;7.560;2024-03-29T03:15:29;98808.75;;;8.20;62.42
64841;BME280;51307;52.162;7.560;2024-03-29T03:17:55;98811.56;;;8.12;62.68
64841;BME280;51307;52.162;7.560;2024-03-29T03:20:20;98805.34;;;8.27;62.23
64841;BME280;51307;52.162;7.560;2024-03-29T03:22:48;98816.53;;;8.15;62.45
64841;BME280;51307;52.162;7.560;2024-03-29T03:25:13;98805.13;;;8.28;62.34
64841;BME280;51307;52.162;7.560;2024-03-29T03:27:39;98805.03;;;8.15;62.29
64841;BME280;51307;52.162;7.560;2024-03-29T03:30:05;98795.06;;;8.23;62.20
64841;BME280;51307;52.162;7.560;2024-03-29T03:32:30;98792.72;;;8.14;62.69
64841;BME280;51307;52.162;7.560;2024-03-29T03:34:56;98796.44;;;8.13;62.68
64841;BME280;51307;52.162;7.560;2024-03-29T03:37:21;98805.25;;;8.13;62.75
64841;BME280;51307;52.162;7.560;2024-03-29T03:39:47;98813.91;;;8.22;62.31
64841;BME280;51307;52.162;7.560;2024-03-29T03:42:13;98807.28;;;8.46;61.57
64841;BME280;51307;52.162;7.560;2024-03-29T03:44:38;98808.66;;;8.35;61.74
64841;BME280;51307;52.162;7.560;2024-03-29T03:47:04;98808.66;;;8.35;61.60
64841;BME280;51307;52.162;7.560;2024-03-29T03:49:29;98813.63;;;8.38;61.33
64841;BME280;51307;52.162;7.560;2024-03-29T03:51:55;98809.94;;;8.39;61.57
64841;BME280;51307;52.162;7.560;2024-03-29T03:54:20;98817.16;;;8.46;61.47
64841;BME280;51307;52.162;7.560;2024-03-29T03:56:46;98810.16;;;8.45;61.52
64841;BME280;51307;52.162;7.560;2024-03-29T03:59:11;98811.22;;;8.44;61.33
64841;BME280;51307;52.162;7.560;2024-03-29T04:01:39;98810.16;;;8.45;61.45
64841;BME280;51307;52.162;7.560;2024-03-29T04:04:04;98815.13;;;8.48;61.23
64841;BME280;51307;52.162;7.560;2024-03-29T04:06:30;98822.88;;;8.42;61.08
64841;BME280;51307;52.162;7.560;2024-03-29T04:08:55;98817.78;;;8.48;61.07
64841;BME280;51307;52.162;7.560;2024-03-29T04:11:21;98824.19;;;8.53;61.03
64841;BME280;51307;52.162;7.560;2024-03-29T04:13:46;98814.97;;;8.56;60.73
64841;BME280;51307;52.162;7.560;2024-03-29T04:16:12;98832.63;;;8.57;60.88
64841;BME280;51307;52.162;7.560;2024-03-29T04:18:37;98829.94;;;8.57;60.49
64841;BME280;51307;52.162;7.560;2024-03-29T04:21:04;98840.78;;;8.55;60.24
64841;BME280;51307;52.162;7.560;2024-03-29T04:23:30;98839.19;;;8.61;60.26
64841;BME280;51307;52.162;7.560;2024-03-29T04:25:59;98844.94;;;8.65;60.56
64841;BME280;51307;52.162;7.560;2024-03-29T04:28:26;98853.53;;;8.60;60.82
64841;BME280;51307;52.162;7.560;2024-03-29T04:30:54;98856.25;;;8.67;60.92
64841;BME280;51307;52.162;7.560;2024-03-29T04:33:20;98855.19;;;8.61;60.52
64841;BME280;51307;52.162;7.560;2024-03-29T04:38:21;98867.31;;;8.70;60.92
64841;BME280;51307;52.162;7.560;2024-03-29T04:40:52;98866.50;;;8.70;61.26
64841;BME280;51307;52.162;7.560;2024-03-29T04:43:18;98858.16;;;8.80;61.10
64841;BME280;51307;52.162;7.560;2024-03-29T04:45:44;98870.91;;;8.84;61.55
64841;BME280;51307;52.162;7.560;2024-03-29T04:48:11;98878.34;;;8.89;62.16
64841;BME280;51307;52.162;7.560;2024-03-29T04:50:36;98876.44;;;8.83;62.74
64841;BME280;51307;52.162;7.560;2024-03-29T04:53:02;98881.75;;;8.76;64.06
64841;BME280;51307;52.162;7.560;2024-03-29T04:55:27;98887.38;;;8.88;64.14
64841;BME280;51307;52.162;7.560;2024-03-29T04:57:53;98881.22;;;8.87;64.52
64841;BME280;51307;52.162;7.560;2024-03-29T05:00:18;98873.09;;;8.74;65.84
64841;BME280;51307;52.162;7.560;2024-03-29T05:02:44;98872.19;;;8.88;65.19
64841;BME280;51307;52.162;7.560;2024-03-29T05:05:09;98871.00;;;8.91;65.37
64841;BME280;51307;52.162;7.560;2024-03-29T05:07:35;98879.59;;;8.93;65.85
64841;BME280;51307;52.162;7.560;2024-03-29T05:10:00;98896.41;;;8.87;65.86
64841;BME280;51307;52.162;7.560;2024-03-29T05:12:28;98899.41;;;8.84;66.30
64841;BME280;51307;52.162;7.560;2024-03-29T05:14:54;98900.81;;;8.80;67.02
64841;BME280;51307;52.162;7.560;2024-03-29T05:17:19;98897.78;;;8.83;67.80
64841;BME280;51307;52.162;7.560;2024-03-29T05:19:50;98889.34;;;8.79;68.25
64841;BME280;51307;52.162;7.560;2024-03-29T05:22:16;98897.53;;;8.78;69.07
64841;BME280;51307;52.162;7.560;2024-03-29T05:24:41;98890.50;;;8.70;69.19
64841;BME280;51307;52.162;7.560;2024-03-29T05:27:07;98893.94;;;8.57;69.97
64841;BME280;51307;52.162;7.560;2024-03-29T05:29:32;98896.66;;;8.70;70.04
64841;BME280;51307;52.162;7.560;2024-03-29T05:31:58;98912.66;;;8.70;70.36
64841;BME280;51307;52.162;7.560;2024-03-29T05:34:23;98922.00;;;8.59;71.05
64841;BME280;51307;52.162;7.560;2024-03-29T05:36:48;98923.59;;;8.54;71.71
64841;BME280;51307;52.162;7.560;2024-03-29T05:39:15;98912.13;;;8.53;71.90
64841;BME280;51307;52.162;7.560;2024-03-29T05:41:41;98921.34;;;8.51;72.24
64841;BME280;51307;52.162;7.560;2024-03-29T05:44:06;98919.28;;;8.53;72.96
64841;BME280;51307;52.162;7.560;2024-03-29T05:46:32;98901.56;;;8.38;74.78
64841;BME280;51307;52.162;7.560;2024-03-29T05:48:57;98911.25;;;8.46;74.35
64841;BME280;51307;52.162;7.560;2024-03-29T05:51:23;98899.53;;;8.19;76.41
64841;BME280;51307;52.162;7.560;2024-03-29T05:53:48;98899.59;;;8.25;76.71
64841;BME280;51307;52.162;7.560;2024-03-29T05:56:14;98901.44;;;8.25;76.91
64841;BME280;51307;52.162;7.560;2024-03-29T05:58:39;98902.47;;;8.24;77.32
64841;BME280;51307;52.162;7.560;2024-03-29T06:01:05;98893.50;;;8.32;76.93
64841;BME280;51307;52.162;7.560;2024-03-29T06:03:30;98895.13;;;8.26;77.98
64841;BME280;51307;52.162;7.560;2024-03-29T06:05:56;98892.44;;;8.26;78.37
64841;BME280;51307;52.162;7.560;2024-03-29T06:08:21;98884.69;;;8.31;78.05
64841;BME280;51307;52.162;7.560;2024-03-29T06:10:49;98880.38;;;8.30;77.91
64841;BME280;51307;52.162;7.560;2024-03-29T06:13:14;98874.59;;;8.27;78.81
64841;BME280;51307;52.162;7.560;2024-03-29T06:15:55;98888.19;;;8.32;78.36
64841;BME280;51307;52.162;7.560;2024-03-29T06:18:39;98881.09;;;8.46;77.73
64841;BME280;51307;52.162;7.560;2024-03-29T06:21:05;98867.34;;;8.42;78.04
64841;BME280;51307;52.162;7.560;2024-03-29T06:23:30;98879.19;;;8.61;77.48
64841;BME280;51307;52.162;7.560;2024-03-29T06:25:56;98878.00;;;8.42;78.82
64841;BME280;51307;52.162;7.560;2024-03-29T06:28:21;98879.31;;;8.53;78.12
64841;BME280;51307;52.162;7.560;2024-03-29T06:30:47;98873.50;;;8.42;78.84
64841;BME280;51307;52.162;7.560;2024-03-29T06:33:12;98870.25;;;8.47;79.31
64841;BME280;51307;52.162;7.560;2024-03-29T06:35:38;98868.53;;;8.33;79.95
64841;BME280;51307;52.162;7.560;2024-03-29T06:38:03;98871.00;;;8.34;80.51
64841;BME280;51307;52.162;7.560;2024-03-29T06:40:29;98870.19;;;8.40;80.15
64841;BME280;51307;52.162;7.560;2024-03-29T06:42:54;98868.06;;;8.29;80.89
64841;BME280;51307;52.162;7.560;2024-03-29T06:45:23;98862.66;;;8.44;80.04
64841;BME280;51307;52.162;7.560;2024-03-29T06:47:48;98860.00;;;8.44;80.74
64841;BME280;51307;52.162;7.560;2024-03-29T06:50:14;98860.59;;;8.39;81.16
64841;BME280;51307;52.162;7.560;2024-03-29T06:52:39;98863.88;;;8.41;80.86
64841;BME280;51307;52.162;7.560;2024-03-29T06:55:05;98869.38;;;8.40;81.61
64841;BME280;51307;52.162;7.560;2024-03-29T06:57:31;98871.16;;;8.54;81.01
64841;BME280;51307;52.162;7.560;2024-03-29T06:59:57;98857.56;;;8.49;80.05
64841;BME280;51307;52.162;7.560;2024-03-29T07:02:23;98850.09;;;8.38;80.92
64841;BME280;51307;52.162;7.560;2024-03-29T07:04:49;98842.88;;;8.32;82.11
64841;BME280;51307;52.162;7.560;2024-03-29T07:07:14;98832.28;;;8.38;82.03
64841;BME280;51307;52.162;7.560;2024-03-29T07:09:40;98835.09;;;8.30;82.64
64841;BME280;51307;52.162;7.560;2024-03-29T07:12:05;98842.28;;;8.36;82.16
64841;BME280;51307;52.162;7.560;2024-03-29T07:14:31;98827.97;;;8.37;82.21
64841;BME280;51307;52.162;7.560;2024-03-29T07:16:59;98835.19;;;8.44;82.26
64841;BME280;51307;52.162;7.560;2024-03-29T07:19:24;98828.78;;;8.38;82.88
64841;BME280;51307;52.162;7.560;2024-03-29T07:21:50;98832.38;;;8.52;82.04
64841;BME280;51307;52.162;7.560;2024-03-29T07:24:19;98835.81;;;8.46;82.88
64841;BME280;51307;52.162;7.560;2024-03-29T07:26:44;98839.13;;;8.48;82.52
64841;BME280;51307;52.162;7.560;2024-03-29T07:29:10;98842.28;;;8.65;82.13
64841;BME280;51307;52.162;7.560;2024-03-29T07:31:35;98839.66;;;8.71;81.51
64841;BME280;51307;52.162;7.560;2024-03-29T07:34:01;98819.97;;;8.72;81.44
64841;BME280;51307;52.162;7.560;2024-03-29T07:36:27;98818.69;;;8.62;82.40
64841;BME280;51307;52.162;7.560;2024-03-29T07:38:57;98821.97;;;8.64;82.88
64841;BME280;51307;52.162;7.560;2024-03-29T07:41:24;98823.66;;;8.71;81.85
64841;BME280;51307;52.162;7.560;2024-03-29T07:43:54;98826.88;;;8.60;82.93
64841;BME280;51307;52.162;7.560;2024-03-29T07:46:22;98825.06;;;8.67;82.89
64841;BME280;51307;52.162;7.560;2024-03-29T07:48:49;98819.41;;;8.84;82.00
64841;BME280;51307;52.162;7.560;2024-03-29T07:51:14;98820.44;;;8.83;81.59
64841;BME280;51307;52.162;7.560;2024-03-29T07:53:40;98821.19;;;8.70;82.55
64841;BME280;51307;52.162;7.560;2024-03-29T07:56:05;98812.66;;;8.81;81.41
64841;BME280;51307;52.162;7.560;2024-03-29T07:58:31;98817.53;;;8.78;81.31
64841;BME280;51307;52.162;7.560;2024-03-29T08:00:57;98838.28;;;8.82;81.53
64841;BME280;51307;52.162;7.560;2024-03-29T08:03:22;98846.75;;;8.86;81.92
64841;BME280;51307;52.162;7.560;2024-03-29T08:05:58;98848.47;;;9.00;81.67
64841;BME280;51307;52.162;7.560;2024-03-29T08:08:23;98854.19;;;8.97;81.53
64841;BME280;51307;52.162;7.560;2024-03-29T08:10:50;98863.34;;;8.88;81.99
64841;BME280;51307;52.162;7.560;2024-03-29T08:13:16;98860.63;;;9.09;80.36
64841;BME280;51307;52.162;7.560;2024-03-29T08:15:46;98856.31;;;9.08;80.01
64841;BME280;51307;52.162;7.560;2024-03-29T08:18:11;98845.22;;;9.12;80.15
64841;BME280;51307;52.162;7.560;2024-03-29T08:20:37;98851.19;;;9.14;80.04
64841;BME280;51307;52.162;7.560;2024-03-29T08:23:03;98858.38;;;9.13;79.36
64841;BME280;51307;52.162;7.560;2024-03-29T08:25:29;98861.81;;;9.00;81.35
64841;BME280;51307;52.162;7.560;2024-03-29T08:27:54;98846.50;;;9.22;80.85
64841;BME280;51307;52.162;7.560;2024-03-29T08:30:26;98852.69;;;9.30;80.26
64841;BME280;51307;52.162;7.560;2024-03-29T08:32:56;98850.00;;;9.30;80.64
64841;BME280;51307;52.162;7.560;2024-03-29T08:35:22;98851.91;;;9.42;80.48
64841;BME280;51307;52.162;7.560;2024-03-29T08:37:48;98846.38;;;9.44;79.67
64841;BME280;51307;52.162;7.560;2024-03-29T08:40:15;98852.56;;;9.45;79.95
64841;BME280;51307;52.162;7.560;2024-03-29T08:42:41;98836.34;;;9.53;79.36
64841;BME280;51307;52.162;7.560;2024-03-29T08:45:07;98830.38;;;9.51;78.88
64841;BME280;51307;52.162;7.560;2024-03-29T08:47:34;98829.34;;;9.52;78.56
64841;BME280;51307;52.162;7.560;2024-03-29T08:49:59;98826.91;;;9.57;78.15
64841;BME280;51307;52.162;7.560;2024-03-29T08:52:24;98833.50;;;9.61;77.25
64841;BME280;51307;52.162;7.560;2024-03-29T08:54:50;98830.41;;;9.64;77.41
64841;BME280;51307;52.162;7.560;2024-03-29T08:57:15;98817.91;;;9.65;76.79
64841;BME280;51307;52.162;7.560;2024-03-29T08:59:41;98834.75;;;9.79;76.98
64841;BME280;51307;52.162;7.560;2024-03-29T09:02:07;98831.44;;;9.70;77.23
64841;BME280;51307;52.162;7.560;2024-03-29T09:04:33;98832.31;;;9.84;77.48
64841;BME280;51307;52.162;7.560;2024-03-29T09:07:02;98827.16;;;9.89;77.95
64841;BME280;51307;52.162;7.560;2024-03-29T09:09:31;98826.75;;;9.92;76.62
64841;BME280;51307;52.162;7.560;2024-03-29T09:11:57;98821.81;;;10.02;77.11
64841;BME280;51307;52.162;7.560;2024-03-29T09:14:23;98824.47;;;9.96;76.66
64841;BME280;51307;52.162;7.560;2024-03-29T09:16:50;98827.78;;;10.11;76.48
64841;BME280;51307;52.162;7.560;2024-03-29T09:19:15;98829.44;;;10.19;77.28
64841;BME280;51307;52.162;7.560;2024-03-29T09:21:41;98822.84;;;10.28;76.94
64841;BME280;51307;52.162;7.560;2024-03-29T09:24:07;98833.13;;;10.31;76.40
64841;BME280;51307;52.162;7.560;2024-03-29T09:26:33;98836.22;;;10.35;76.02
64841;BME280;51307;52.162;7.560;2024-03-29T09:28:58;98826.94;;;10.44;76.64
64841;BME280;51307;52.162;7.560;2024-03-29T09:31:24;98829.59;;;10.44;76.80
64841;BME280;51307;52.162;7.560;2024-03-29T09:33:49;98831.69;;;10.55;75.82
64841;BME280;51307;52.162;7.560;2024-03-29T09:36:21;98823.66;;;10.55;75.67
64841;BME280;51307;52.162;7.560;2024-03-29T09:38:49;98845.47;;;10.59;75.53
64841;BME280;51307;52.162;7.560;2024-03-29T09:41:17;98844.22;;;10.62;75.39
64841;BME280;51307;52.162;7.560;2024-03-29T09:43:45;98848.34;;;10.57;75.55
64841;BME280;51307;52.162;7.560;2024-03-29T09:46:12;98858.22;;;10.57;75.23
64841;BME280;51307;52.162;7.560;2024-03-29T09:48:40;98872.81;;;10.61;76.24
64841;BME280;51307;52.162;7.560;2024-03-29T09:51:07;98857.19;;;10.65;76.08
64841;BME280;51307;52.162;7.560;2024-03-29T09:53:34;98864.00;;;10.47;75.79
64841;BME280;51307;52.162;7.560;2024-03-29T09:56:03;98873.03;;;10.59;76.52
64841;BME280;51307;52.162;7.560;2024-03-29T09:58:29;98864.19;;;10.66;76.33
64841;BME280;51307;52.162;7.560;2024-03-29T10:00:55;98870.56;;;10.58;76.12
64841;BME280;51307;52.162;7.560;2024-03-29T10:03:23;98876.72;;;10.52;75.96
64841;BME280;51307;52.162;7.560;2024-03-29T10:05:57;98866.03;;;10.58;76.77
64841;BME280;51307;52.162;7.560;2024-03-29T10:08:30;98861.09;;;10.55;76.39
64841;BME280;51307;52.162;7.560;2024-03-29T10:10:56;98860.91;;;10.57;76.67
64841;BME280;51307;52.162;7.560;2024-03-29T10:13:22;98862.31;;;10.66;77.04
64841;BME280;51307;52.162;7.560;2024-03-29T10:15:55;98872.22;;;10.66;77.55
64841;BME280;51307;52.162;7.560;2024-03-29T10:18:25;98875.06;;;10.57;77.48
64841;BME280;51307;52.162;7.560;2024-03-29T10:21:05;98878.97;;;10.68;77.02
64841;BME280;51307;52.162;7.560;2024-03-29T10:23:33;98865.81;;;10.60;77.77
64841;BME280;51307;52.162;7.560;2024-03-29T10:26:01;98881.06;;;10.59;77.83
64841;BME280;51307;52.162;7.560;2024-03-29T10:28:35;98883.09;;;10.57;78.43
64841;BME280;51307;52.162;7.560;2024-03-29T10:31:02;98885.59;;;10.59;79.60
64841;BME280;51307;52.162;7.560;2024-03-29T10:33:32;98884.97;;;10.57;81.05
64841;BME280;51307;52.162;7.560;2024-03-29T10:36:03;98897.31;;;10.58;82.21
64841;BME280;51307;52.162;7.560;2024-03-29T10:38:30;98901.63;;;10.59;83.39
64841;BME280;51307;52.162;7.560;2024-03-29T10:40:56;98907.59;;;10.54;83.61
64841;BME280;51307;52.162;7.560;2024-03-29T10:43:24;98904.50;;;10.51;83.59
64841;BME280;51307;52.162;7.560;2024-03-29T10:45:50;98911.69;;;10.64;83.36
64841;BME280;51307;52.162;7.560;2024-03-29T10:48:21;98914.59;;;10.49;83.49
64841;BME280;51307;52.162;7.560;2024-03-29T10:50:48;98922.59;;;10.55;82.98
64841;BME280;51307;52.162;7.560;2024-03-29T10:53:16;98915.81;;;10.66;82.40
64841;BME280;51307;52.162;7.560;2024-03-29T10:55:42;98911.69;;;10.70;82.20
64841;BME280;51307;52.162;7.560;2024-03-29T10:58:12;98906.34;;;10.70;82.09
64841;BME280;51307;52.162;7.560;2024-03-29T11:00:46;98911.91;;;10.75;81.79
64841;BME280;51307;52.162;7.560;2024-03-29T11:04:08;98908.81;;;10.72;81.58
64841;BME280;51307;52.162;7.560;2024-03-29T11:06:28;98907.38;;;10.63;80.78
64841;BME280;51307;52.162;7.560;2024-03-29T11:08:58;98901.19;;;10.75;80.87
64841;BME280;51307;52.162;7.560;2024-03-29T11:11:26;98893.75;;;10.91;81.00
64841;BME280;51307;52.162;7.560;2024-03-29T11:14:03;98911.66;;;10.97;81.39
64841;BME280;51307;52.162;7.560;2024-03-29T11:16:33;98894.81;;;10.90;81.57
64841;BME280;51307;52.162;7.560;2024-03-29T11:18:59;98887.78;;;11.02;80.95
64841;BME280;51307;52.162;7.560;2024-03-29T11:21:27;98878.28;;;11.13;81.20
64841;BME280;51307;52.162;7.560;2024-03-29T11:23:54;98899.47;;;11.15;81.01
64841;BME280;51307;52.162;7.560;2024-03-29T11:26:23;98908.09;;;11.17;80.62
64841;BME280;51307;52.162;7.560;2024-03-29T11:28:53;98896.16;;;11.13;80.41
64841;BME280;51307;52.162;7.560;2024-03-29T11:31:23;98907.06;;;11.18;79.24
64841;BME280;51307;52.162;7.560;2024-03-29T11:33:50;98912.63;;;11.16;78.00
64841;BME280;51307;52.162;7.560;2024-03-29T11:36:24;98917.31;;;11.34;78.72
64841;BME280;51307;52.162;7.560;2024-03-29T11:38:53;98916.09;;;11.23;78.32
64841;BME280;51307;52.162;7.560;2024-03-29T11:41:24;98924.69;;;11.46;77.92
64841;BME280;51307;52.162;7.560;2024-03-29T11:43:54;98935.13;;;11.60;77.48
64841;BME280;51307;52.162;7.560;2024-03-29T11:46:21;98926.09;;;11.55;76.41
64841;BME280;51307;52.162;7.560;2024-03-29T11:48:47;98920.69;;;11.68;76.14
64841;BME280;51307;52.162;7.560;2024-03-29T11:51:17;98919.41;;;11.77;76.01
64841;BME280;51307;52.162;7.560;2024-03-29T11:53:44;98922.44;;;11.94;75.45
64841;BME280;51307;52.162;7.560;2024-03-29T11:56:10;98917.81;;;11.63;72.28
64841;BME280;51307;52.162;7.560;2024-03-29T11:58:40;98904.34;;;11.83;71.30
64841;BME280;51307;52.162;7.560;2024-03-29T12:01:06;98901.38;;;11.98;71.76
64841;BME280;51307;52.162;7.560;2024-03-29T12:03:40;98900.63;;;11.91;70.26
64841;BME280;51307;52.162;7.560;2024-03-29T12:06:06;98906.03;;;12.09;70.42
64841;BME280;51307;52.162;7.560;2024-03-29T12:08:34;98937.19;;;12.10;69.75
64841;BME280;51307;52.162;7.560;2024-03-29T12:11:01;98934.69;;;12.16;70.33
64841;BME280;51307;52.162;7.560;2024-03-29T12:13:27;98933.88;;;12.15;69.84
64841;BME280;51307;52.162;7.560;2024-03-29T12:15:53;98928.28;;;12.17;68.49
64841;BME280;51307;52.162;7.560;2024-03-29T12:18:23;98955.44;;;11.95;68.70
64841;BME280;51307;52.162;7.560;2024-03-29T12:20:50;98956.13;;;12.16;68.39
64841;BME280;51307;52.162;7.560;2024-03-29T12:23:18;98949.94;;;12.15;67.85
64841;BME280;51307;52.162;7.560;2024-03-29T12:25:45;98972.03;;;12.10;67.63
64841;BME280;51307;52.162;7.560;2024-03-29T12:28:13;98974.34;;;12.00;67.72
64841;BME280;51307;52.162;7.560;2024-03-29T12:30:47;98968.31;;;12.11;67.45
64841;BME280;51307;52.162;7.560;2024-03-29T12:35:42;98974.88;;;12.16;67.81
64841;BME280;51307;52.162;7.560;2024-03-29T12:38:14;98967.75;;;11.96;68.50
64841;BME280;51307;52.162;7.560;2024-03-29T12:40:42;98973.34;;;11.94;68.54
64841;BME280;51307;52.162;7.560;2024-03-29T12:43:09;98972.69;;;12.06;68.29
64841;BME280;51307;52.162;7.560;2024-03-29T12:45:36;98962.88;;;12.25;67.54
64841;BME280;51307;52.162;7.560;2024-03-29T12:48:30;98973.34;;;12.33;67.74
64841;BME280;51307;52.162;7.560;2024-03-29T12:50:55;98990.59;;;12.44;69.65
64841;BME280;51307;52.162;7.560;2024-03-29T12:53:21;98990.75;;;12.17;68.31
64841;BME280;51307;52.162;7.560;2024-03-29T12:55:47;98984.41;;;12.43;68.37
64841;BME280;51307;52.162;7.560;2024-03-29T12:58:15;98992.47;;;12.43;68.42
64841;BME280;51307;52.162;7.560;2024-03-29T13:00:42;98994.75;;;12.40;68.21
64841;BME280;51307;52.162;7.560;2024-03-29T13:03:08;98980.59;;;12.58;67.97
64841;BME280;51307;52.162;7.560;2024-03-29T13:05:37;98984.47;;;12.62;67.36
64841;BME280;51307;52.162;7.560;2024-03-29T13:08:07;98991.59;;;12.50;67.56
64841;BME280;51307;52.162;7.560;2024-03-29T13:10:36;98982.94;;;12.73;67.27
64841;BME280;51307;52.162;7.560;2024-03-29T13:13:02;98981.09;;;12.73;66.31